createdAt,value
2022-10-17T00:00:48.524Z,77.54
2022-10-17T00:03:15.339Z,77.57
2022-10-17T00:05:44.330Z,77.56
2022-10-17T00:08:12.271Z,77.58
2022-10-17T00:10:39.680Z,77.51
2022-10-17T00:13:07.921Z,77.55
2022-10-17T00:15:34.677Z,77.53
2022-10-17T00:18:01.615Z,77.48
2022-10-17T00:20:30.425Z,77.49
2022-10-17T00:22:57.423Z,77.60
2022-10-17T00:25:24.304Z,77.72
2022-10-17T00:27:51.027Z,77.79
2022-10-17T00:30:17.917Z,77.83
2022-10-17T00:32:45.018Z,77.80
2022-10-17T00:35:11.791Z,77.81
2022-10-17T00:37:38.670Z,77.78
2022-10-17T00:40:06.880Z,77.79
2022-10-17T00:42:33.646Z,77.79
2022-10-17T00:45:05.771Z,77.76
2022-10-17T00:47:33.626Z,77.70
2022-10-17T00:52:34.090Z,77.74
2022-10-17T00:55:10.772Z,77.78
2022-10-17T00:57:39.043Z,77.80
2022-10-17T01:00:09.810Z,77.71
2022-10-17T01:02:37.068Z,77.67
2022-10-17T01:05:04.722Z,77.75
2022-10-17T01:07:34.917Z,77.70
2022-10-17T01:10:05.602Z,77.63
2022-10-17T01:12:35.045Z,77.61
2022-10-17T01:15:04.546Z,77.65
2022-10-17T01:17:49.860Z,77.74
2022-10-17T01:20:22.381Z,77.83
2022-10-17T01:23:28.752Z,77.85
2022-10-17T01:26:13.616Z,77.79
2022-10-17T01:28:58.893Z,77.97
2022-10-17T01:31:35.530Z,77.96
2022-10-17T01:34:32.243Z,77.96
2022-10-17T01:37:23.761Z,77.91
2022-10-17T01:39:55.035Z,77.92
2022-10-17T01:42:27.569Z,77.97
2022-10-17T01:45:14.202Z,77.90
2022-10-17T01:47:42.674Z,77.97
2022-10-17T01:50:18.429Z,77.89
2022-10-17T01:52:51.065Z,77.81
2022-10-17T01:55:23.782Z,77.83
2022-10-17T01:58:04.582Z,77.80
2022-10-17T02:00:32.709Z,77.84
2022-10-17T02:03:04.711Z,77.81
2022-10-17T02:05:36.827Z,77.86
2022-10-17T02:08:04.108Z,77.90
2022-10-17T02:10:43.013Z,77.87
2022-10-17T02:13:31.505Z,77.96
2022-10-17T02:16:12.268Z,77.93
2022-10-17T02:18:47.783Z,77.90
2022-10-17T02:21:23.009Z,77.89
2022-10-17T02:24:04.852Z,77.91
2022-10-17T02:26:44.650Z,77.90
2022-10-17T02:29:19.486Z,77.88
2022-10-17T02:31:59.300Z,77.96
2022-10-17T02:34:49.317Z,78.06
2022-10-17T02:37:20.137Z,78.01
2022-10-17T02:39:48.469Z,78.07
2022-10-17T02:42:16.213Z,78.17
2022-10-17T02:44:45.091Z,78.19
2022-10-17T02:47:20.275Z,78.13
2022-10-17T02:49:52.652Z,78.09
2022-10-17T02:52:26.464Z,78.12
2022-10-17T02:55:10.892Z,78.22
2022-10-17T02:57:41.803Z,78.23
2022-10-17T03:00:12.360Z,78.21
2022-10-17T03:02:45.561Z,78.29
2022-10-17T03:05:15.005Z,78.28
2022-10-17T03:07:41.780Z,78.29
2022-10-17T03:10:08.619Z,78.28
2022-10-17T03:12:35.347Z,78.30
2022-10-17T03:15:02.501Z,78.31
2022-10-17T03:17:29.218Z,78.43
2022-10-17T03:19:55.973Z,78.35
2022-10-17T03:22:22.745Z,78.43
2022-10-17T03:24:49.475Z,78.44
2022-10-17T03:27:16.278Z,78.48
2022-10-17T03:29:43.014Z,78.47
2022-10-17T03:32:09.776Z,78.49
2022-10-17T03:34:36.512Z,78.46
2022-10-17T03:37:03.369Z,78.49
2022-10-17T03:39:30.110Z,78.55
2022-10-17T03:41:56.884Z,78.46
2022-10-17T03:44:23.682Z,78.53
2022-10-17T03:46:50.464Z,78.57
2022-10-17T03:49:17.224Z,78.59
2022-10-17T03:51:43.916Z,78.52
2022-10-17T03:54:10.658Z,78.42
2022-10-17T03:56:37.395Z,78.48
2022-10-17T03:59:04.160Z,78.48
2022-10-17T04:01:31.019Z,78.49
2022-10-17T04:03:58.047Z,78.50
2022-10-17T04:06:24.963Z,78.63
2022-10-17T04:08:51.712Z,78.62
2022-10-17T04:11:20.736Z,78.65
2022-10-17T04:13:48.553Z,78.61
2022-10-17T04:16:16.999Z,78.65
2022-10-17T04:18:43.914Z,78.68
2022-10-17T04:21:11.775Z,78.73
2022-10-17T04:23:39.411Z,78.78
2022-10-17T04:26:07.104Z,78.86
2022-10-17T04:28:34.478Z,78.84
2022-10-17T04:31:07.095Z,78.85
2022-10-17T04:33:34.562Z,78.90
2022-10-17T04:36:03.886Z,78.91
2022-10-17T04:38:31.021Z,78.95
2022-10-17T04:41:03.343Z,79.03
2022-10-17T04:43:31.284Z,78.99
2022-10-17T04:46:02.465Z,79.01
2022-10-17T04:48:30.400Z,79.08
2022-10-17T04:51:05.874Z,79.11
2022-10-17T04:53:34.823Z,79.08
2022-10-17T04:56:02.104Z,79.10
2022-10-17T04:58:30.309Z,79.12
2022-10-17T05:00:57.180Z,79.17
2022-10-17T05:03:24.001Z,79.19
2022-10-17T05:05:50.725Z,79.16
2022-10-17T05:08:17.465Z,79.20
2022-10-17T05:10:46.229Z,79.29
2022-10-17T05:13:13.433Z,79.34
2022-10-17T05:15:40.248Z,79.39
2022-10-17T05:18:07.386Z,79.44
2022-10-17T05:20:34.374Z,79.53
2022-10-17T05:23:01.367Z,79.50
2022-10-17T05:25:28.226Z,79.54
2022-10-17T05:27:54.987Z,79.46
2022-10-17T05:30:21.842Z,79.45
2022-10-17T05:32:48.646Z,79.46
2022-10-17T05:35:15.409Z,79.40
2022-10-17T05:37:42.114Z,79.42
2022-10-17T05:40:09.411Z,79.44
2022-10-17T05:42:36.216Z,79.47
2022-10-17T05:45:03.950Z,79.50
2022-10-17T05:47:31.239Z,79.52
2022-10-17T05:49:58.210Z,79.52
2022-10-17T05:52:25.143Z,79.56
2022-10-17T05:54:51.909Z,79.59
2022-10-17T05:57:18.704Z,79.59
2022-10-17T05:59:45.426Z,79.57
2022-10-17T06:02:15.366Z,79.54
2022-10-17T06:04:45.653Z,79.52
2022-10-17T06:07:13.093Z,79.51
2022-10-17T06:09:40.334Z,79.58
2022-10-17T06:12:08.014Z,79.59
2022-10-17T06:14:35.223Z,79.53
2022-10-17T06:17:02.080Z,79.58
2022-10-17T06:19:28.847Z,79.57
2022-10-17T06:21:55.690Z,79.56
2022-10-17T06:24:22.507Z,79.58
2022-10-17T06:26:50.002Z,79.56
2022-10-17T06:29:17.158Z,79.63
2022-10-17T06:31:44.133Z,79.76
2022-10-17T06:34:11.138Z,79.89
2022-10-17T06:36:37.913Z,79.98
2022-10-17T06:39:04.763Z,80.06
2022-10-17T06:41:31.494Z,80.17
2022-10-17T06:43:58.304Z,80.25
2022-10-17T06:46:26.920Z,80.41
2022-10-17T06:48:53.648Z,80.55
2022-10-17T06:51:20.362Z,80.73
2022-10-17T06:53:47.318Z,80.83
2022-10-17T06:56:14.117Z,80.92
2022-10-17T06:58:41.674Z,80.97
2022-10-17T07:01:13.458Z,81.01
2022-10-17T07:03:41.211Z,81.12
2022-10-17T07:06:08.326Z,81.14
2022-10-17T07:08:35.061Z,81.30
2022-10-17T07:11:10.249Z,81.46
2022-10-17T07:13:39.321Z,81.57
2022-10-17T07:16:06.883Z,81.68
2022-10-17T07:18:33.779Z,81.72
2022-10-17T07:21:01.267Z,81.69
2022-10-17T07:23:28.114Z,81.73
2022-10-17T07:26:03.541Z,81.95
2022-10-17T07:28:30.375Z,81.86
2022-10-17T07:31:03.775Z,81.89
2022-10-17T07:33:30.704Z,81.84
2022-10-17T07:35:59.862Z,81.85
2022-10-17T07:38:27.945Z,81.86
2022-10-17T07:40:56.234Z,81.87
2022-10-17T07:43:24.484Z,81.84
2022-10-17T07:45:51.893Z,81.71
2022-10-17T07:48:19.810Z,81.66
2022-10-17T07:50:46.609Z,81.62
2022-10-17T07:53:13.718Z,81.47
2022-10-17T07:55:42.003Z,81.31
2022-10-17T07:58:09.798Z,81.10
2022-10-17T08:00:37.376Z,81.02
2022-10-17T08:03:04.840Z,80.92
2022-10-17T08:05:32.117Z,80.84
2022-10-17T08:07:59.021Z,80.70
2022-10-17T08:10:29.923Z,80.67
2022-10-17T08:12:58.086Z,80.59
2022-10-17T08:15:29.405Z,80.55
2022-10-17T08:17:58.770Z,80.50
2022-10-17T08:20:25.608Z,80.50
2022-10-17T08:22:55.853Z,80.50
2022-10-17T08:25:23.628Z,80.47
2022-10-17T08:27:50.609Z,80.57
2022-10-17T08:30:17.675Z,80.56
2022-10-17T08:32:44.479Z,80.53
2022-10-17T08:35:11.278Z,80.53
2022-10-17T08:37:38.015Z,80.46
2022-10-17T08:40:05.246Z,80.45
2022-10-17T08:42:55.703Z,80.53
2022-10-17T08:45:49.041Z,80.57
2022-10-17T08:48:23.472Z,80.53
2022-10-17T08:51:05.181Z,80.55
2022-10-17T08:54:00.821Z,80.44
2022-10-17T08:56:47.965Z,81.03
2022-10-17T08:59:27.525Z,80.70
2022-10-17T09:02:03.717Z,80.51
2022-10-17T09:04:52.878Z,80.60
2022-10-17T09:07:33.030Z,80.65
2022-10-17T09:10:07.894Z,80.73
2022-10-17T09:12:45.709Z,80.96
2022-10-17T09:15:21.559Z,80.84
2022-10-17T09:17:56.211Z,80.76
2022-10-17T09:20:26.586Z,80.55
2022-10-17T09:23:16.219Z,80.66
2022-10-17T09:25:50.529Z,80.60
2022-10-17T09:28:22.169Z,80.38
2022-10-17T09:31:13.145Z,80.21
2022-10-17T09:33:53.989Z,80.09
2022-10-17T09:36:33.676Z,79.87
2022-10-17T09:39:05.177Z,80.49
2022-10-17T09:41:46.882Z,82.38
2022-10-17T09:44:16.345Z,82.58
2022-10-17T09:46:56.472Z,80.46
2022-10-17T09:49:32.796Z,80.05
2022-10-17T09:52:01.915Z,79.78
2022-10-17T09:54:39.823Z,80.17
2022-10-17T09:57:09.401Z,79.50
2022-10-17T09:59:38.684Z,79.50
2022-10-17T10:02:25.691Z,79.61
2022-10-17T10:05:03.756Z,82.09
2022-10-17T10:07:34.507Z,79.68
2022-10-17T10:10:03.297Z,79.76
2022-10-17T10:12:35.903Z,79.84
2022-10-17T10:15:03.209Z,79.26
2022-10-17T10:17:44.279Z,79.43
2022-10-17T10:20:31.901Z,79.50
2022-10-17T10:23:22.199Z,78.52
2022-10-17T10:25:58.520Z,78.56
2022-10-17T10:28:29.675Z,78.62
2022-10-17T10:31:00.021Z,77.96
2022-10-17T10:33:29.860Z,78.10
2022-10-17T10:36:03.513Z,77.76
2022-10-17T10:38:33.082Z,77.57
2022-10-17T10:41:11.485Z,77.49
2022-10-17T10:43:42.362Z,77.22
2022-10-17T10:46:23.029Z,76.89
2022-10-17T10:48:54.125Z,76.83
2022-10-17T10:51:32.162Z,76.73
2022-10-17T10:54:22.112Z,76.59
2022-10-17T10:56:58.186Z,76.54
2022-10-17T10:59:35.599Z,76.51
2022-10-17T11:02:22.504Z,76.58
2022-10-17T11:05:05.197Z,76.34
2022-10-17T11:08:14.335Z,76.37
2022-10-17T11:11:09.260Z,76.29
2022-10-17T11:14:12.972Z,76.13
2022-10-17T11:16:58.022Z,76.66
2022-10-17T11:19:34.016Z,75.82
2022-10-17T11:22:26.652Z,75.65
2022-10-17T11:25:28.243Z,75.54
2022-10-17T11:27:55.017Z,75.49
2022-10-17T11:30:24.721Z,75.42
2022-10-17T11:33:01.340Z,75.69
2022-10-17T11:35:33.612Z,75.34
2022-10-17T11:38:27.779Z,75.30
2022-10-17T11:40:58.948Z,75.08
2022-10-17T11:43:36.207Z,75.01
2022-10-17T11:46:15.585Z,74.89
2022-10-17T11:48:51.166Z,74.72
2022-10-17T11:54:15.095Z,74.79
2022-10-17T11:57:10.736Z,75.04
2022-10-17T11:59:53.027Z,74.51
2022-10-17T12:02:32.429Z,74.37
2022-10-17T12:05:24.434Z,74.26
2022-10-17T12:08:00.269Z,74.10
2022-10-17T12:10:51.177Z,73.96
2022-10-17T12:13:30.458Z,73.83
2022-10-17T12:16:20.256Z,73.71
2022-10-17T12:18:49.385Z,73.72
2022-10-17T12:21:16.330Z,73.70
2022-10-17T12:23:52.560Z,73.65
2022-10-17T12:26:27.931Z,73.33
2022-10-17T12:28:55.587Z,73.08
2022-10-17T12:31:33.401Z,72.85
2022-10-17T12:34:05.113Z,72.64
2022-10-17T12:36:31.924Z,72.54
2022-10-17T12:39:01.382Z,72.46
2022-10-17T12:41:40.222Z,72.40
2022-10-17T12:44:13.131Z,72.30
2022-10-17T12:46:49.423Z,72.14
2022-10-17T12:49:23.938Z,72.03
2022-10-17T12:52:15.841Z,71.90
2022-10-17T12:54:48.123Z,71.71
2022-10-17T12:57:41.462Z,71.70
2022-10-17T13:00:20.794Z,71.52
2022-10-17T13:02:49.911Z,71.39
2022-10-17T13:05:32.803Z,71.24
2022-10-17T13:08:02.309Z,71.18
2022-10-17T13:10:32.239Z,71.17
2022-10-17T13:13:20.170Z,71.05
2022-10-17T13:15:52.490Z,70.89
2022-10-17T13:18:22.958Z,70.60
2022-10-17T13:20:57.346Z,70.26
2022-10-17T13:23:25.596Z,70.19
2022-10-17T13:26:10.710Z,70.11
2022-10-17T13:28:39.580Z,70.08
2022-10-17T13:31:07.582Z,69.99
2022-10-17T13:33:40.256Z,70.12
2022-10-17T13:36:13.710Z,70.09
2022-10-17T13:38:42.662Z,70.11
2022-10-17T13:41:34.896Z,70.04
2022-10-17T13:44:04.109Z,70.09
2022-10-17T13:46:38.083Z,70.12
2022-10-17T13:49:19.067Z,70.06
2022-10-17T13:51:49.102Z,70.12
2022-10-17T13:54:43.342Z,70.10
2022-10-17T13:57:31.414Z,70.04
2022-10-17T14:00:01.335Z,69.87
2022-10-17T14:02:31.027Z,69.95
2022-10-17T14:05:18.132Z,70.07
2022-10-17T14:10:39.539Z,70.03
2022-10-17T14:13:08.413Z,69.95
2022-10-17T14:15:37.063Z,69.94
2022-10-17T14:18:08.547Z,69.95
2022-10-17T14:21:28.816Z,69.95
2022-10-17T14:23:41.651Z,69.86
2022-10-17T14:26:28.638Z,69.70
2022-10-17T14:29:23.451Z,69.72
2022-10-17T14:31:53.650Z,69.51
2022-10-17T14:34:27.770Z,69.47
2022-10-17T14:36:55.491Z,69.47
2022-10-17T14:39:24.460Z,69.40
2022-10-17T14:41:52.415Z,69.46
2022-10-17T14:44:41.993Z,69.37
2022-10-17T14:47:42.284Z,69.35
2022-10-17T14:50:12.038Z,69.33
2022-10-17T14:52:39.114Z,69.40
2022-10-17T14:55:27.236Z,69.39
2022-10-17T14:57:54.457Z,69.40
2022-10-17T15:00:23.317Z,69.49
2022-10-17T15:02:51.595Z,69.41
2022-10-17T15:05:20.277Z,69.42
2022-10-17T15:07:47.255Z,69.49
2022-10-17T15:10:34.314Z,69.47
2022-10-17T15:15:52.046Z,69.66
2022-10-17T15:18:19.359Z,69.64
2022-10-17T15:20:46.143Z,69.70
2022-10-17T15:23:12.932Z,69.77
2022-10-17T15:25:39.836Z,69.84
2022-10-17T15:28:06.686Z,69.77
2022-10-17T15:30:36.562Z,69.85
2022-10-17T15:33:03.586Z,69.79
2022-10-17T15:35:30.943Z,69.81
2022-10-17T15:37:57.855Z,69.72
2022-10-17T15:40:29.404Z,69.77
2022-10-17T15:42:56.731Z,69.49
2022-10-17T15:45:24.276Z,69.26
2022-10-17T15:47:57.266Z,69.46
2022-10-17T15:50:24.061Z,69.41
2022-10-17T15:52:51.127Z,69.32
2022-10-17T15:55:18.417Z,69.30
2022-10-17T15:57:47.313Z,69.21
2022-10-17T16:00:23.294Z,69.25
2022-10-17T16:02:50.901Z,69.23
2022-10-17T16:05:23.794Z,69.13
2022-10-17T16:07:50.795Z,69.16
2022-10-17T16:10:17.935Z,69.27
2022-10-17T16:12:45.729Z,69.36
2022-10-17T16:15:16.696Z,69.39
2022-10-17T16:17:44.336Z,69.44
2022-10-17T16:20:13.030Z,69.48
2022-10-17T16:22:42.251Z,69.56
2022-10-17T16:25:22.565Z,69.61
2022-10-17T16:27:52.322Z,69.70
2022-10-17T16:30:20.227Z,69.70
2022-10-17T16:32:47.776Z,69.78
2022-10-17T16:35:18.659Z,69.82
2022-10-17T16:37:45.472Z,69.89
2022-10-17T16:40:12.383Z,69.95
2022-10-17T16:42:39.123Z,70.01
2022-10-17T16:45:06.546Z,70.11
2022-10-17T16:47:33.358Z,70.11
2022-10-17T16:50:00.213Z,70.25
2022-10-17T16:52:27.229Z,70.37
2022-10-17T16:54:54.084Z,70.42
2022-10-17T16:57:20.838Z,70.47
2022-10-17T16:59:47.625Z,70.51
2022-10-17T17:02:17.556Z,70.58
2022-10-17T17:04:47.564Z,70.68
2022-10-17T17:07:14.471Z,70.84
2022-10-17T17:09:41.426Z,70.94
2022-10-17T17:12:08.869Z,71.08
2022-10-17T17:14:36.119Z,71.23
2022-10-17T17:17:03.713Z,71.34
2022-10-17T17:19:31.131Z,71.40
2022-10-17T17:21:58.684Z,71.43
2022-10-17T17:24:26.159Z,71.53
2022-10-17T17:26:55.670Z,71.58
2022-10-17T17:29:25.064Z,71.67
2022-10-17T17:31:52.838Z,71.75
2022-10-17T17:34:20.251Z,71.71
2022-10-17T17:36:49.127Z,71.80
2022-10-17T17:39:17.052Z,71.75
2022-10-17T17:41:46.069Z,71.82
2022-10-17T17:44:16.708Z,71.93
2022-10-17T17:46:45.157Z,72.02
2022-10-17T17:49:12.987Z,71.96
2022-10-17T17:51:41.654Z,71.98
2022-10-17T17:54:11.812Z,72.01
2022-10-17T17:56:39.681Z,72.08
2022-10-17T17:59:07.770Z,72.10
2022-10-17T18:01:39.683Z,72.08
2022-10-17T18:04:09.136Z,72.00
2022-10-17T18:06:38.217Z,71.95
2022-10-17T18:09:06.922Z,71.97
2022-10-17T18:11:34.754Z,72.09
2022-10-17T18:14:08.322Z,72.04
2022-10-17T18:16:37.650Z,72.12
2022-10-17T18:19:09.179Z,72.22
2022-10-17T18:21:37.640Z,72.41
2022-10-17T18:24:06.209Z,72.41
2022-10-17T18:26:34.376Z,72.48
2022-10-17T18:29:03.287Z,72.52
2022-10-17T18:31:36.329Z,72.42
2022-10-17T18:34:05.552Z,72.55
2022-10-17T18:36:35.498Z,72.50
2022-10-17T18:39:03.328Z,72.35
2022-10-17T18:41:31.440Z,72.42
2022-10-17T18:43:58.798Z,72.40
2022-10-17T18:46:32.811Z,72.43
2022-10-17T18:49:01.597Z,72.43
2022-10-17T18:51:29.355Z,72.30
2022-10-17T18:53:59.456Z,72.37
2022-10-17T18:56:27.373Z,72.34
2022-10-17T18:58:55.294Z,72.30
2022-10-17T19:01:26.339Z,72.31
2022-10-17T19:03:56.665Z,72.40
2022-10-17T19:06:28.907Z,72.48
2022-10-17T19:08:56.049Z,72.44
2022-10-17T19:11:25.913Z,72.45
2022-10-17T19:13:53.890Z,72.32
2022-10-17T19:16:23.832Z,72.17
2022-10-17T19:18:52.717Z,72.13
2022-10-17T19:21:21.967Z,72.17
2022-10-17T19:23:55.488Z,72.27
2022-10-17T19:26:23.531Z,72.22
2022-10-17T19:28:53.520Z,72.32
2022-10-17T19:31:26.498Z,72.35
2022-10-17T19:33:55.652Z,72.30
2022-10-17T19:36:28.882Z,72.38
2022-10-17T19:39:00.526Z,72.44
2022-10-17T19:41:28.160Z,72.41
2022-10-17T19:43:55.370Z,72.45
2022-10-17T19:46:24.294Z,72.36
2022-10-17T19:48:52.064Z,72.45
2022-10-17T19:51:21.004Z,72.45
2022-10-17T19:53:48.064Z,72.47
2022-10-17T19:56:18.641Z,72.44
2022-10-17T19:58:46.740Z,72.44
2022-10-17T20:01:35.412Z,72.41
2022-10-17T20:04:03.453Z,72.30
2022-10-17T20:06:30.674Z,72.43
2022-10-17T20:08:57.730Z,72.40
2022-10-17T20:11:27.545Z,72.35
2022-10-17T20:13:56.134Z,72.28
2022-10-17T20:16:25.753Z,72.24
2022-10-17T20:18:55.293Z,72.19
2022-10-17T20:21:31.668Z,72.17
2022-10-17T20:23:59.946Z,72.10
2022-10-17T20:26:43.102Z,72.00
2022-10-17T20:29:20.126Z,71.95
2022-10-17T20:31:48.100Z,71.85
2022-10-17T20:34:17.076Z,71.84
2022-10-17T20:36:44.139Z,71.89
2022-10-17T20:39:12.840Z,71.94
2022-10-17T20:41:40.350Z,72.05
2022-10-17T20:44:07.642Z,72.10
2022-10-17T20:46:37.638Z,72.14
2022-10-17T20:49:07.331Z,72.08
2022-10-17T20:51:34.811Z,72.07
2022-10-17T20:54:02.807Z,72.07
2022-10-17T20:56:31.399Z,71.90
2022-10-17T20:59:04.414Z,71.90
2022-10-17T21:01:33.323Z,71.82
2022-10-17T21:04:15.837Z,71.79
2022-10-17T21:06:51.975Z,71.61
2022-10-17T21:09:19.180Z,71.41
2022-10-17T21:11:46.164Z,71.16
2022-10-17T21:14:12.958Z,71.00
2022-10-17T21:16:41.337Z,70.88
2022-10-17T21:19:08.194Z,70.79
2022-10-17T21:21:37.414Z,70.52
2022-10-17T21:24:12.501Z,70.40
2022-10-17T21:26:40.827Z,70.31
2022-10-17T21:29:08.278Z,70.18
2022-10-17T21:31:40.396Z,70.04
2022-10-17T21:34:13.437Z,70.03
2022-10-17T21:36:41.303Z,69.91
2022-10-17T21:41:40.520Z,69.73
2022-10-17T21:44:12.676Z,69.75
2022-10-17T21:46:39.512Z,69.55
2022-10-17T21:49:06.855Z,69.59
2022-10-17T21:51:33.681Z,69.63
2022-10-17T21:54:00.507Z,69.60
2022-10-17T21:56:29.905Z,69.63
2022-10-17T21:58:58.081Z,69.61
2022-10-17T22:01:27.965Z,69.57
2022-10-17T22:03:59.208Z,69.55
2022-10-17T22:06:44.770Z,69.51
2022-10-17T22:09:17.798Z,69.52
2022-10-17T22:11:47.130Z,69.54
2022-10-17T22:14:17.023Z,69.48
2022-10-17T22:16:45.405Z,69.60
2022-10-17T22:19:14.044Z,69.66
2022-10-17T22:21:41.050Z,69.69
2022-10-17T22:24:11.453Z,69.67
2022-10-17T22:26:38.607Z,69.71
2022-10-17T22:29:07.088Z,69.75
2022-10-17T22:31:34.243Z,69.67
2022-10-17T22:34:00.996Z,69.64
2022-10-17T22:36:27.850Z,69.81
2022-10-17T22:38:55.026Z,69.75
2022-10-17T22:41:21.788Z,69.75
2022-10-17T22:43:48.516Z,69.80
2022-10-17T22:46:17.002Z,69.74
2022-10-17T22:48:44.151Z,69.79
2022-10-17T22:51:11.828Z,69.68
2022-10-17T22:53:38.932Z,69.77
2022-10-17T22:56:11.130Z,69.63
2022-10-17T22:58:38.467Z,69.72
2022-10-17T23:01:07.225Z,69.80
2022-10-17T23:03:35.423Z,69.78
2022-10-17T23:06:02.627Z,69.89
2022-10-17T23:08:29.483Z,69.89
2022-10-17T23:10:56.283Z,69.89
2022-10-17T23:13:23.182Z,69.94
2022-10-17T23:15:54.779Z,69.90
2022-10-17T23:18:22.856Z,69.92
2022-10-17T23:20:50.330Z,70.03
2022-10-17T23:23:17.911Z,70.21
2022-10-17T23:25:45.045Z,70.17
2022-10-17T23:28:12.127Z,70.21
2022-10-17T23:30:39.842Z,70.26
2022-10-17T23:33:07.225Z,70.33
2022-10-17T23:35:34.565Z,70.37
2022-10-17T23:38:01.298Z,70.47
2022-10-17T23:40:28.216Z,70.61
2022-10-17T23:42:55.014Z,70.64
2022-10-17T23:45:21.895Z,70.86
2022-10-17T23:47:48.650Z,70.96
2022-10-17T23:50:16.437Z,71.10
2022-10-17T23:52:43.732Z,71.17
2022-10-17T23:55:11.056Z,71.24
2022-10-17T23:57:37.799Z,71.20
